Osakis, Minnesota
Current Conditions -  °F | °C
As of 2:53 AM on Wednesday 22 Oct 2014 (Local Time) from KAXN Reporting Station
Clear Clear  
Wind Chill: 42°   Ceiling: Unl
Heat Index: 48°   Visibility: 10mi
Dew Point: 40°   Wind: 15mph
Humidity: 74%   Direction: 150°SSE
Pressure: 30.06"   Gusts: NA
Location:  45.87°N, 95.15°W
Report Text: KAXN 220753Z AUTO 15013KT 10SM CLR 09/04 A3006 RMK AO2 SLP184 T00890044
Loading
Personal Weather Stations






























Interactive Weather Map New forecast layout! Learn more

10-Day Weather Forecast

Advertisements
Track Severe Weather on mobile